Terminal Aerodrome Forecast
Issued by NWS

Home | Current Version | Previous Version | Text Only | Print | Product List | Glossary On
Versions: 1 2 3 4 5 6 7 8 9 10 11 12 13 14 15 16 17 18 19 20
000
FTUS43 KGRR 010605 AAA
TAFMKG
TAF AMD
KMKG 010605Z 0106/0206 08012G20KT P6SM -SHRA OVC008
      TEMPO 0106/0109 2SM -TSRA BR OVC004CB
     FM011100 18015G25KT P6SM VCSH BKN035
     FM012100 19015G25KT 4SM -SHRA BR OVC015
     FM020300 20015G25KT 4SM -SHRA BR OVC008=

USA.gov is the U.S. government's official web portal to all federal, state and local government web resources and services.